Airport View

Enter AWOS ICAO identifier for current METAR.

ex. KFNL

PAJN 101553Z 11011KT 10SM -RA FEW008 BKN039 OVC048 11/09 A3000 RMK AO2 SLP158 P0003 T01110089

10 Aug 2020 16:06

Phone: 907-789-1243

Other Area AWOS: PAOH - PAGS - PAGN - PAEL

TAF AMD PAJN 101440Z 1015/1112 11015G23KT 6SM -RA BR SCT025 OVC050 WS020/23030KT FM110200 10012G20KT 6SM -RA BR OVC035 FM110500 10007KT P6SM VCSH OVC035